In Rescue
 
Open Full Screen Window  High Contrast Mode
Wind Gusting 00 knots
12
January 17, 2021 1:47 PM CST
Weather Information
Wind Direction
  280 °
Wind Speed
  12 kt (14 mph)
Wind Gust
  00 kt (0 mph)
Altimeter
29.82 in
Visibility
10 SM
Temperature
00° C
32° F
Dewpoint
-02° C
28° F
Humidity
87%
1hr Rain Fall
00.00 in.
24hr Rain Fall
00.00 in.
Sky Condition
Overcast @ 1,500 ft
MVFR

METAR KCNB 171947Z AUTO 28012KT 10SM OVC015 00/M02 A2982 RMK AO2 T00001022

FAA Disclaimer: The data displayed is for advisory purposes only and is not to be used for flight planning or operations.